createdAt,value
2024-02-16T00:00:49.293Z,26.54
2024-02-16T00:01:49.244Z,26.50
2024-02-16T00:02:49.437Z,26.52
2024-02-16T00:03:49.340Z,26.48
2024-02-16T00:04:49.475Z,26.51
2024-02-16T00:05:49.470Z,26.51
2024-02-16T00:06:49.551Z,26.46
2024-02-16T00:07:49.536Z,26.48
2024-02-16T00:08:49.807Z,26.47
2024-02-16T00:09:49.596Z,26.47
2024-02-16T00:10:49.667Z,26.49
2024-02-16T00:11:49.684Z,26.48
2024-02-16T00:12:49.739Z,26.47
2024-02-16T00:13:49.768Z,26.44
2024-02-16T00:14:49.911Z,26.43
2024-02-16T00:15:49.859Z,26.42
2024-02-16T00:16:49.906Z,26.41
2024-02-16T00:17:49.999Z,26.39
2024-02-16T00:18:50.209Z,26.38
2024-02-16T00:19:50.101Z,26.39
2024-02-16T00:20:50.094Z,26.38
2024-02-16T00:21:50.134Z,26.34
2024-02-16T00:22:50.176Z,26.34
2024-02-16T00:23:50.292Z,26.36
2024-02-16T00:24:50.252Z,26.34
2024-02-16T00:25:50.290Z,26.34
2024-02-16T00:26:50.373Z,26.33
2024-02-16T00:27:50.456Z,26.34
2024-02-16T00:28:50.399Z,26.33
2024-02-16T00:29:50.521Z,26.33
2024-02-16T00:30:50.533Z,26.34
2024-02-16T00:31:50.627Z,26.32
2024-02-16T00:32:50.659Z,26.33
2024-02-16T00:33:50.681Z,26.30
2024-02-16T00:34:50.674Z,26.31
2024-02-16T00:35:50.756Z,26.29
2024-02-16T00:36:50.702Z,26.30
2024-02-16T00:37:50.748Z,26.29
2024-02-16T00:38:50.805Z,26.27
2024-02-16T00:39:50.823Z,26.28
2024-02-16T00:40:50.818Z,26.27
2024-02-16T00:41:50.912Z,26.27
2024-02-16T00:42:50.906Z,26.26
2024-02-16T00:43:50.945Z,26.26
2024-02-16T00:44:51.048Z,26.26
2024-02-16T00:45:50.994Z,26.26
2024-02-16T00:46:51.071Z,26.27
2024-02-16T00:47:51.233Z,26.26
2024-02-16T00:48:51.296Z,26.26
2024-02-16T00:49:51.208Z,26.24
2024-02-16T00:50:51.213Z,26.25
2024-02-16T00:51:51.223Z,26.25
2024-02-16T00:52:51.274Z,26.23
2024-02-16T00:53:51.312Z,26.23
2024-02-16T00:54:51.340Z,26.22
2024-02-16T00:55:51.366Z,26.19
2024-02-16T00:56:51.383Z,26.19
2024-02-16T00:57:51.426Z,26.19
2024-02-16T00:58:51.440Z,26.20
2024-02-16T00:59:51.504Z,26.19
2024-02-16T01:00:51.550Z,26.22
2024-02-16T01:01:51.543Z,26.21
2024-02-16T01:02:51.614Z,26.22
2024-02-16T01:03:51.615Z,26.21
2024-02-16T01:04:51.840Z,26.23
2024-02-16T01:05:51.769Z,26.22
2024-02-16T01:06:51.721Z,26.20
2024-02-16T01:07:51.886Z,26.21
2024-02-16T01:08:51.924Z,26.19
2024-02-16T01:09:51.835Z,26.19
2024-02-16T01:10:52.761Z,26.18
2024-02-16T01:11:52.022Z,26.16
2024-02-16T01:12:51.976Z,26.16
2024-02-16T01:13:51.976Z,26.10
2024-02-16T01:14:52.032Z,26.10
2024-02-16T01:15:52.090Z,26.11
2024-02-16T01:16:52.104Z,26.10
2024-02-16T01:17:52.225Z,26.10
2024-02-16T01:18:52.289Z,26.09
2024-02-16T01:19:52.259Z,26.08
2024-02-16T01:20:52.302Z,26.05
2024-02-16T01:21:52.295Z,26.07
2024-02-16T01:22:52.362Z,26.06
2024-02-16T01:23:52.420Z,26.03
2024-02-16T01:24:52.403Z,26.02
2024-02-16T01:25:52.471Z,26.03
2024-02-16T01:26:52.568Z,26.01
2024-02-16T01:27:52.518Z,26.02
2024-02-16T01:28:52.548Z,26.03
2024-02-16T01:29:52.680Z,26.02
2024-02-16T01:30:52.636Z,26.02
2024-02-16T01:31:52.678Z,26.02
2024-02-16T01:32:52.823Z,26.01
2024-02-16T01:33:52.971Z,26.03
2024-02-16T01:34:52.885Z,26.00
2024-02-16T01:35:52.866Z,25.99
2024-02-16T01:36:52.873Z,25.99
2024-02-16T01:37:52.889Z,25.95
2024-02-16T01:38:53.077Z,25.95
2024-02-16T01:39:52.956Z,25.96
2024-02-16T01:40:52.996Z,25.93
2024-02-16T01:41:53.069Z,25.94
2024-02-16T01:42:53.093Z,25.95
2024-02-16T01:43:53.109Z,25.96
2024-02-16T01:44:53.144Z,25.95
2024-02-16T01:45:53.200Z,25.94
2024-02-16T01:46:53.241Z,25.94
2024-02-16T01:47:53.455Z,25.92
2024-02-16T01:48:53.457Z,25.90
2024-02-16T01:49:53.415Z,25.88
2024-02-16T01:50:53.418Z,25.88
2024-02-16T01:51:53.421Z,25.89
2024-02-16T01:52:53.483Z,25.90
2024-02-16T01:53:53.510Z,25.90
2024-02-16T01:54:53.517Z,25.90
2024-02-16T01:55:53.579Z,25.87
2024-02-16T01:56:53.625Z,25.87
2024-02-16T01:57:53.670Z,25.86
2024-02-16T01:58:53.707Z,25.85
2024-02-16T01:59:53.785Z,25.83
2024-02-16T02:00:53.820Z,25.83
2024-02-16T02:01:53.810Z,25.82
2024-02-16T02:02:53.916Z,25.82
2024-02-16T02:03:53.900Z,25.81
2024-02-16T02:04:54.078Z,25.78
2024-02-16T02:05:54.042Z,25.78
2024-02-16T02:06:54.094Z,25.77
2024-02-16T02:07:54.072Z,25.76
2024-02-16T02:08:54.130Z,25.76
2024-02-16T02:09:54.133Z,25.78
2024-02-16T02:10:54.171Z,25.80
2024-02-16T02:11:54.202Z,25.80
2024-02-16T02:12:54.254Z,25.79
2024-02-16T02:13:54.336Z,25.80
2024-02-16T02:14:54.372Z,25.79
2024-02-16T02:15:54.386Z,25.78
2024-02-16T02:16:58.946Z,25.76
2024-02-16T02:17:55.550Z,25.76
2024-02-16T02:18:54.531Z,25.76
2024-02-16T02:19:54.509Z,25.75
2024-02-16T02:20:54.418Z,25.75
2024-02-16T02:21:54.408Z,25.74
2024-02-16T02:22:54.426Z,25.73
2024-02-16T02:23:54.478Z,25.74
2024-02-16T02:24:54.430Z,25.74
2024-02-16T02:25:54.441Z,25.75
2024-02-16T02:26:54.469Z,25.74
2024-02-16T02:27:54.415Z,25.73
2024-02-16T02:28:54.412Z,25.72
2024-02-16T02:29:54.442Z,25.73
2024-02-16T02:30:54.422Z,25.72
2024-02-16T02:31:54.438Z,25.70
2024-02-16T02:32:54.583Z,25.68
2024-02-16T02:33:54.599Z,25.69
2024-02-16T02:34:54.580Z,25.66
2024-02-16T02:35:54.663Z,25.65
2024-02-16T02:36:54.621Z,25.64
2024-02-16T02:37:54.684Z,25.63
2024-02-16T02:38:54.716Z,25.66
2024-02-16T02:39:54.759Z,25.63
2024-02-16T02:40:54.801Z,25.64
2024-02-16T02:41:54.856Z,25.67
2024-02-16T02:42:54.936Z,25.56
2024-02-16T02:43:54.839Z,25.53
2024-02-16T02:44:54.879Z,25.53
2024-02-16T02:45:54.899Z,25.49
2024-02-16T02:46:54.949Z,25.56
2024-02-16T02:47:55.400Z,25.68
2024-02-16T02:48:55.132Z,25.68
2024-02-16T02:49:55.065Z,25.62
2024-02-16T02:50:55.081Z,25.74
2024-02-16T02:51:55.031Z,25.63
2024-02-16T02:52:55.040Z,25.63
2024-02-16T02:53:55.078Z,25.59
2024-02-16T02:54:55.066Z,25.56
2024-02-16T02:55:55.780Z,25.55
2024-02-16T02:56:55.117Z,25.53
2024-02-16T02:57:55.138Z,25.53
2024-02-16T02:58:55.089Z,25.48
2024-02-16T02:59:55.146Z,25.49
2024-02-16T03:00:55.167Z,25.47
2024-02-16T03:01:55.144Z,25.47
2024-02-16T03:02:55.212Z,25.46
2024-02-16T03:03:55.456Z,25.42
2024-02-16T03:04:55.123Z,25.43
2024-02-16T03:05:55.171Z,25.41
2024-02-16T03:06:55.441Z,25.40
2024-02-16T03:07:55.469Z,25.40
2024-02-16T03:08:55.176Z,25.37
2024-02-16T03:09:55.155Z,25.33
2024-02-16T03:10:55.225Z,25.33
2024-02-16T03:11:55.226Z,25.29
2024-02-16T03:12:55.294Z,25.27
2024-02-16T03:13:55.313Z,25.29
2024-02-16T03:14:55.489Z,25.28
2024-02-16T03:15:55.473Z,25.25
2024-02-16T03:16:55.505Z,25.25
2024-02-16T03:17:55.618Z,25.23
2024-02-16T03:18:55.715Z,25.22
2024-02-16T03:19:55.766Z,25.22
2024-02-16T03:20:55.808Z,25.21
2024-02-16T03:21:55.848Z,25.21
2024-02-16T03:22:55.907Z,25.18
2024-02-16T03:23:55.948Z,25.16
2024-02-16T03:24:56.014Z,25.15
2024-02-16T03:25:56.131Z,25.15
2024-02-16T03:26:56.231Z,25.16
2024-02-16T03:27:56.217Z,25.17
2024-02-16T03:28:56.278Z,25.18
2024-02-16T03:29:56.364Z,25.19
2024-02-16T03:30:56.365Z,25.17
2024-02-16T03:31:56.434Z,25.15
2024-02-16T03:32:56.594Z,25.16
2024-02-16T03:33:56.954Z,25.17
2024-02-16T03:34:56.620Z,25.14
2024-02-16T03:35:56.613Z,25.16
2024-02-16T03:36:56.653Z,25.14
2024-02-16T03:37:56.697Z,25.15
2024-02-16T03:38:56.803Z,25.14
2024-02-16T03:39:56.812Z,25.15
2024-02-16T03:40:56.826Z,25.14
2024-02-16T03:41:56.958Z,25.15
2024-02-16T03:42:56.906Z,25.13
2024-02-16T03:43:56.951Z,25.12
2024-02-16T03:44:57.042Z,25.12
2024-02-16T03:45:57.113Z,25.09
2024-02-16T03:46:57.379Z,25.11
2024-02-16T03:47:57.453Z,25.12
2024-02-16T03:48:57.432Z,25.09
2024-02-16T03:49:57.466Z,25.09
2024-02-16T03:50:57.461Z,25.08
2024-02-16T03:51:57.508Z,25.10
2024-02-16T03:52:57.719Z,25.08
2024-02-16T03:53:57.725Z,25.08
2024-02-16T03:54:57.729Z,25.09
2024-02-16T03:55:57.793Z,25.08
2024-02-16T03:56:57.862Z,25.07
2024-02-16T03:57:57.949Z,25.07
2024-02-16T03:58:57.974Z,25.08
2024-02-16T03:59:58.132Z,25.08
2024-02-16T04:00:58.131Z,25.06
2024-02-16T04:01:58.187Z,25.07
2024-02-16T04:02:58.283Z,25.08
2024-02-16T04:03:58.277Z,25.06
2024-02-16T04:04:58.370Z,25.03
2024-02-16T04:05:58.482Z,25.07
2024-02-16T04:06:58.518Z,25.07
2024-02-16T04:07:59.074Z,25.07
2024-02-16T04:08:58.632Z,25.05
2024-02-16T04:09:58.715Z,25.03
2024-02-16T04:10:58.817Z,25.06
2024-02-16T04:11:58.902Z,25.03
2024-02-16T04:12:58.883Z,25.04
2024-02-16T04:13:58.956Z,25.04
2024-02-16T04:14:59.051Z,25.03
2024-02-16T04:15:59.168Z,25.04
2024-02-16T04:16:59.167Z,25.04
2024-02-16T04:17:59.396Z,25.04
2024-02-16T04:18:59.604Z,25.03
2024-02-16T04:19:59.385Z,25.01
2024-02-16T04:20:59.469Z,25.05
2024-02-16T04:22:00.943Z,25.01
2024-02-16T04:22:59.583Z,25.03
2024-02-16T04:23:59.667Z,25.02
2024-02-16T04:24:59.711Z,25.03
2024-02-16T04:25:59.806Z,25.01
2024-02-16T04:26:59.876Z,24.93
2024-02-16T04:27:59.903Z,25.01
2024-02-16T04:28:59.977Z,25.03
2024-02-16T04:30:00.050Z,25.01
2024-02-16T04:31:07.293Z,24.99
2024-02-16T04:32:07.269Z,25.03
2024-02-16T04:33:07.413Z,25.04
2024-02-16T04:34:07.369Z,25.01
2024-02-16T04:35:07.306Z,25.05
2024-02-16T04:36:07.250Z,25.06
2024-02-16T04:37:07.262Z,25.06
2024-02-16T04:38:07.236Z,25.05
2024-02-16T04:39:07.267Z,25.07
2024-02-16T04:40:07.279Z,25.03
2024-02-16T04:41:07.271Z,25.04
2024-02-16T04:42:07.248Z,25.03
2024-02-16T04:43:07.281Z,24.95
2024-02-16T04:44:07.244Z,25.01
2024-02-16T04:45:07.331Z,25.04
2024-02-16T04:46:07.262Z,24.96
2024-02-16T04:47:07.236Z,24.96
2024-02-16T04:48:07.365Z,25.02
2024-02-16T04:49:07.371Z,25.02
2024-02-16T04:50:07.275Z,25.04
2024-02-16T04:51:07.239Z,25.00
2024-02-16T04:52:07.264Z,24.87
2024-02-16T04:53:07.251Z,24.88
2024-02-16T04:54:07.291Z,24.94
2024-02-16T04:55:07.258Z,24.93
2024-02-16T04:56:07.269Z,24.98
2024-02-16T04:57:07.285Z,24.94
2024-02-16T04:58:07.306Z,24.95
2024-02-16T04:59:07.280Z,24.94
2024-02-16T05:00:07.374Z,24.93
2024-02-16T05:01:07.318Z,25.01
2024-02-16T05:02:07.309Z,24.92
2024-02-16T05:03:07.370Z,24.91
2024-02-16T05:04:07.307Z,24.91
2024-02-16T05:05:07.343Z,24.95
2024-02-16T05:06:07.390Z,24.94
2024-02-16T05:07:07.345Z,24.92
2024-02-16T05:08:07.323Z,24.89
2024-02-16T05:09:07.387Z,24.94
2024-02-16T05:10:07.340Z,24.95
2024-02-16T05:11:07.310Z,25.01
2024-02-16T05:12:07.355Z,24.98
2024-02-16T05:13:07.338Z,24.93
2024-02-16T05:14:07.295Z,24.91
2024-02-16T05:15:07.384Z,24.91
2024-02-16T05:16:07.291Z,24.98
2024-02-16T05:17:07.321Z,24.92
2024-02-16T05:18:07.411Z,24.98
2024-02-16T05:19:07.363Z,24.99
2024-02-16T05:20:07.310Z,24.96
2024-02-16T05:21:07.302Z,25.06
2024-02-16T05:22:07.315Z,25.01
2024-02-16T05:23:07.305Z,25.03
2024-02-16T05:24:07.310Z,25.04
2024-02-16T05:25:07.285Z,25.00
2024-02-16T05:26:07.282Z,25.05
2024-02-16T05:27:07.339Z,25.10
2024-02-16T05:28:07.346Z,25.07
2024-02-16T05:29:07.317Z,25.04
2024-02-16T05:30:07.314Z,25.02
2024-02-16T05:31:07.316Z,24.97
2024-02-16T05:32:07.289Z,24.99
2024-02-16T05:33:07.362Z,24.99
2024-02-16T05:34:07.414Z,25.04
2024-02-16T05:35:07.380Z,25.06
2024-02-16T05:36:07.358Z,25.12
2024-02-16T05:37:07.315Z,25.15
2024-02-16T05:38:07.311Z,25.14
2024-02-16T05:39:07.370Z,25.02
2024-02-16T05:40:07.310Z,25.01
2024-02-16T05:41:07.330Z,25.14
2024-02-16T05:42:07.345Z,25.13
2024-02-16T05:43:07.350Z,25.11
2024-02-16T05:44:07.350Z,25.08
2024-02-16T05:45:08.753Z,25.11
2024-02-16T05:46:07.306Z,25.15
2024-02-16T05:47:07.320Z,25.09
2024-02-16T05:48:07.396Z,25.13
2024-02-16T05:49:07.549Z,25.10
2024-02-16T05:50:07.389Z,25.05
2024-02-16T05:51:07.433Z,25.06
2024-02-16T05:52:07.327Z,25.13
2024-02-16T05:53:07.340Z,25.10
2024-02-16T05:54:07.349Z,25.13
2024-02-16T05:55:07.302Z,25.15
2024-02-16T05:56:07.333Z,25.08
2024-02-16T05:57:07.369Z,25.08
2024-02-16T05:58:07.328Z,25.13
2024-02-16T05:59:07.351Z,25.38
2024-02-16T06:00:07.342Z,25.40
2024-02-16T06:02:36.219Z,26.62
2024-02-16T06:03:13.633Z,25.68
2024-02-16T06:04:13.651Z,25.61
2024-02-16T06:05:13.603Z,25.60
2024-02-16T06:06:13.699Z,25.56
2024-02-16T06:07:13.887Z,25.56
2024-02-16T06:08:13.646Z,25.56
2024-02-16T06:09:13.686Z,25.55
2024-02-16T06:10:13.634Z,25.53
2024-02-16T06:11:13.644Z,25.53
2024-02-16T06:12:13.627Z,25.51
2024-02-16T06:13:13.616Z,25.46
2024-02-16T06:14:14.436Z,25.37
2024-02-16T06:15:13.649Z,25.42
2024-02-16T06:16:13.596Z,25.44
2024-02-16T06:17:13.649Z,25.49
2024-02-16T06:18:13.664Z,25.48
2024-02-16T06:19:13.786Z,25.45
2024-02-16T06:20:13.662Z,25.50
2024-02-16T06:21:13.654Z,26.06
2024-02-16T06:22:13.615Z,26.73
2024-02-16T06:23:13.656Z,27.39
2024-02-16T06:24:13.687Z,28.05
2024-02-16T06:25:13.677Z,28.47
2024-02-16T06:26:13.678Z,28.84
2024-02-16T06:27:13.660Z,29.24
2024-02-16T06:28:13.630Z,29.53
2024-02-16T06:29:13.640Z,30.01
2024-02-16T06:30:13.807Z,30.26
2024-02-16T06:31:13.622Z,30.40
2024-02-16T06:32:13.723Z,30.42
2024-02-16T06:33:13.731Z,30.56
2024-02-16T06:34:13.759Z,30.74
2024-02-16T06:35:13.799Z,30.84
2024-02-16T06:36:13.851Z,31.24
2024-02-16T06:37:13.848Z,31.71
2024-02-16T06:38:13.863Z,32.36
2024-02-16T06:39:14.003Z,32.85
2024-02-16T06:40:13.975Z,33.25
2024-02-16T06:41:13.992Z,33.72
2024-02-16T06:42:14.162Z,34.17
2024-02-16T06:43:14.001Z,34.46
2024-02-16T06:44:14.076Z,34.57
2024-02-16T06:45:14.158Z,34.75
2024-02-16T06:46:37.364Z,34.96
2024-02-16T06:47:14.234Z,35.30
2024-02-16T06:48:14.315Z,35.43
2024-02-16T06:49:14.292Z,35.71
2024-02-16T06:50:14.301Z,35.73
2024-02-16T06:51:14.466Z,35.12
2024-02-16T06:52:14.239Z,34.34
2024-02-16T06:53:14.242Z,33.55
2024-02-16T06:54:14.409Z,32.84
2024-02-16T06:55:14.413Z,32.16
2024-02-16T06:56:14.403Z,31.72
2024-02-16T06:57:14.554Z,31.63
2024-02-16T06:58:14.580Z,31.72
2024-02-16T06:59:14.586Z,31.79
2024-02-16T07:00:14.629Z,31.84
2024-02-16T07:01:14.737Z,31.87
2024-02-16T07:02:14.721Z,31.87
2024-02-16T07:03:14.781Z,31.80
2024-02-16T07:04:14.933Z,31.58
2024-02-16T07:05:14.948Z,31.43
2024-02-16T07:06:15.237Z,31.23
2024-02-16T07:07:15.091Z,31.16
2024-02-16T07:08:14.962Z,31.17
2024-02-16T07:09:15.087Z,31.15
2024-02-16T07:10:15.140Z,31.39
2024-02-16T07:11:15.121Z,31.58
2024-02-16T07:12:15.149Z,31.61
2024-02-16T07:13:15.188Z,31.63
2024-02-16T07:14:15.209Z,31.69
2024-02-16T07:15:15.246Z,31.74
2024-02-16T07:16:15.323Z,31.71
2024-02-16T07:17:15.333Z,31.54
2024-02-16T07:18:15.381Z,31.51
2024-02-16T07:19:15.520Z,31.46
2024-02-16T07:20:15.485Z,31.63
2024-02-16T07:21:15.485Z,31.66
2024-02-16T07:22:15.467Z,31.70
2024-02-16T07:23:15.587Z,31.75
2024-02-16T07:24:15.637Z,31.67
2024-02-16T07:25:15.599Z,31.65
2024-02-16T07:26:15.707Z,31.46
2024-02-16T07:27:15.769Z,31.65
2024-02-16T07:28:15.752Z,31.62
2024-02-16T07:29:15.824Z,31.69
2024-02-16T07:30:20.759Z,31.65
2024-02-16T07:31:16.912Z,31.63
2024-02-16T07:32:15.884Z,31.61
2024-02-16T07:33:15.971Z,31.45
2024-02-16T07:34:16.075Z,31.30
2024-02-16T07:35:15.975Z,31.06
2024-02-16T07:36:15.927Z,30.66
2024-02-16T07:37:15.918Z,30.43
2024-02-16T07:38:15.894Z,30.23
2024-02-16T07:39:16.049Z,29.93
2024-02-16T07:40:15.894Z,29.83
2024-02-16T07:41:15.921Z,29.74
2024-02-16T07:42:16.069Z,29.62
2024-02-16T07:43:15.920Z,29.57
2024-02-16T07:44:16.473Z,29.52
2024-02-16T07:45:16.108Z,29.47
2024-02-16T07:46:16.048Z,29.57
2024-02-16T07:47:16.152Z,29.56
2024-02-16T07:48:16.193Z,29.42
2024-02-16T07:49:16.333Z,29.47
2024-02-16T07:50:16.173Z,29.55
2024-02-16T07:51:16.323Z,29.54
2024-02-16T07:52:16.288Z,29.52
2024-02-16T07:53:16.295Z,29.41
2024-02-16T07:54:16.387Z,29.39
2024-02-16T07:55:16.305Z,29.27
2024-02-16T07:56:16.324Z,29.30
2024-02-16T07:57:16.388Z,29.39
2024-02-16T07:58:16.375Z,29.43
2024-02-16T07:59:16.372Z,29.48
2024-02-16T08:00:16.589Z,29.44
2024-02-16T08:01:16.739Z,29.51
2024-02-16T08:02:16.476Z,29.32
2024-02-16T08:03:16.493Z,29.29
2024-02-16T08:04:16.568Z,29.30
2024-02-16T08:05:16.634Z,29.35
2024-02-16T08:06:16.747Z,29.32
2024-02-16T08:07:16.644Z,29.49
2024-02-16T08:08:16.596Z,29.45
2024-02-16T08:09:17.373Z,29.36
2024-02-16T08:10:16.614Z,29.31
2024-02-16T08:11:16.669Z,29.38
2024-02-16T08:12:16.693Z,29.44
2024-02-16T08:13:16.740Z,29.43
2024-02-16T08:14:16.686Z,29.38
2024-02-16T08:15:16.787Z,29.38
2024-02-16T08:16:16.692Z,29.39
2024-02-16T08:17:20.117Z,29.37
2024-02-16T08:18:16.816Z,29.41
2024-02-16T08:19:16.858Z,29.41
2024-02-16T08:20:16.781Z,29.23
2024-02-16T08:21:16.756Z,29.16
2024-02-16T08:22:16.688Z,29.19
2024-02-16T08:23:16.701Z,29.14
2024-02-16T08:24:16.733Z,29.11
2024-02-16T08:25:16.831Z,29.16
2024-02-16T08:26:16.730Z,29.11
2024-02-16T08:27:17.078Z,29.11
2024-02-16T08:28:16.742Z,29.18
2024-02-16T08:29:16.735Z,29.08
2024-02-16T08:30:16.812Z,29.08
2024-02-16T08:31:16.783Z,29.11
2024-02-16T08:32:16.771Z,29.09
2024-02-16T08:33:17.875Z,29.07
2024-02-16T08:34:16.833Z,29.12
2024-02-16T08:35:16.834Z,29.06
2024-02-16T08:36:16.939Z,28.91
2024-02-16T08:37:16.762Z,28.81
2024-02-16T08:38:16.707Z,28.89
2024-02-16T08:39:16.768Z,28.93
2024-02-16T08:40:16.852Z,29.11
2024-02-16T08:41:16.730Z,29.17
2024-02-16T08:42:16.777Z,29.24
2024-02-16T08:43:16.754Z,29.26
2024-02-16T08:44:16.763Z,29.21
2024-02-16T08:45:16.871Z,29.23
2024-02-16T08:46:16.690Z,29.11
2024-02-16T08:47:16.765Z,28.84
2024-02-16T08:48:16.865Z,28.91
2024-02-16T08:49:16.856Z,29.06
2024-02-16T08:50:16.818Z,28.92
2024-02-16T08:51:16.842Z,28.58
2024-02-16T08:52:16.737Z,28.51
2024-02-16T08:53:16.822Z,28.60
2024-02-16T08:54:16.750Z,28.73
2024-02-16T08:55:16.712Z,28.76
2024-02-16T08:56:16.779Z,28.73
2024-02-16T08:57:16.819Z,28.78
2024-02-16T08:58:16.813Z,28.65
2024-02-16T08:59:16.755Z,28.61
2024-02-16T09:00:16.805Z,28.70
2024-02-16T09:01:16.806Z,28.68
2024-02-16T09:02:16.893Z,28.60
2024-02-16T09:03:16.866Z,28.69
2024-02-16T09:04:17.076Z,28.49
2024-02-16T09:05:17.031Z,28.43
2024-02-16T09:06:17.042Z,28.61
2024-02-16T09:07:17.172Z,29.21
2024-02-16T09:08:17.021Z,30.01
2024-02-16T09:09:17.210Z,30.79
2024-02-16T09:10:17.123Z,31.37
2024-02-16T09:11:17.236Z,31.86
2024-02-16T09:12:17.235Z,32.32
2024-02-16T09:13:24.467Z,32.69
2024-02-16T09:14:18.268Z,32.95
2024-02-16T09:15:17.337Z,33.13
2024-02-16T09:16:17.221Z,33.27
2024-02-16T09:17:17.282Z,33.34
2024-02-16T09:18:17.406Z,33.32
2024-02-16T09:19:17.398Z,33.28
2024-02-16T09:20:17.445Z,33.26
2024-02-16T09:21:17.341Z,33.31
2024-02-16T09:22:17.253Z,33.31
2024-02-16T09:23:17.214Z,33.32
2024-02-16T09:24:17.269Z,33.40
2024-02-16T09:25:17.370Z,33.33
2024-02-16T09:26:17.260Z,33.20
2024-02-16T09:27:17.307Z,33.05
2024-02-16T09:28:23.796Z,32.80
2024-02-16T09:29:18.308Z,32.55
2024-02-16T09:30:18.255Z,32.35
2024-02-16T09:31:17.283Z,32.26
2024-02-16T09:32:17.201Z,32.33
2024-02-16T09:33:17.495Z,32.50
2024-02-16T09:34:17.391Z,32.64
2024-02-16T09:35:17.330Z,32.69
2024-02-16T09:36:17.401Z,32.69
2024-02-16T09:37:17.252Z,32.69
2024-02-16T09:38:17.318Z,32.75
2024-02-16T09:39:17.298Z,32.82
2024-02-16T09:40:17.439Z,32.82
2024-02-16T09:41:17.484Z,32.77
2024-02-16T09:42:17.478Z,32.94
2024-02-16T09:43:17.351Z,32.92
2024-02-16T09:44:17.364Z,32.86
2024-02-16T09:45:17.524Z,32.85
2024-02-16T09:46:17.381Z,32.88
2024-02-16T09:47:17.383Z,32.93
2024-02-16T09:48:17.623Z,33.01
2024-02-16T09:49:20.206Z,33.05
2024-02-16T09:50:17.556Z,33.04
2024-02-16T09:51:17.457Z,33.06
2024-02-16T09:52:17.443Z,33.08
2024-02-16T09:53:17.358Z,33.16
2024-02-16T09:54:17.470Z,33.20
2024-02-16T09:55:17.501Z,33.24
2024-02-16T09:56:17.444Z,33.30
2024-02-16T09:57:17.500Z,33.27
2024-02-16T09:58:17.462Z,33.24
2024-02-16T09:59:17.484Z,33.28
2024-02-16T10:00:17.468Z,33.36
2024-02-16T10:01:17.490Z,33.17
2024-02-16T10:02:17.372Z,32.61
2024-02-16T10:03:17.415Z,31.94
2024-02-16T10:04:17.417Z,31.24
2024-02-16T10:05:17.539Z,30.68
2024-02-16T10:06:17.721Z,30.18
2024-02-16T10:07:17.552Z,29.71
2024-02-16T10:08:17.358Z,29.31
2024-02-16T10:09:17.481Z,28.95
2024-02-16T10:10:17.457Z,28.68
2024-02-16T10:11:17.566Z,28.42
2024-02-16T10:12:17.513Z,28.20
2024-02-16T10:13:17.417Z,28.02
2024-02-16T10:14:17.478Z,27.89
2024-02-16T10:15:17.474Z,27.73
2024-02-16T10:16:17.481Z,27.58
2024-02-16T10:17:17.487Z,27.47
2024-02-16T10:18:17.613Z,27.35
2024-02-16T10:19:18.574Z,27.24
2024-02-16T10:20:17.402Z,27.16
2024-02-16T10:21:17.519Z,27.07
2024-02-16T10:22:17.444Z,27.02
2024-02-16T10:23:17.422Z,26.98
2024-02-16T10:24:17.520Z,26.98
2024-02-16T10:25:17.387Z,27.00
2024-02-16T10:26:17.509Z,27.15
2024-02-16T10:27:18.185Z,26.99
2024-02-16T10:28:17.458Z,26.99
2024-02-16T10:29:17.460Z,27.03
2024-02-16T10:30:17.520Z,27.23
2024-02-16T10:31:17.580Z,27.21
2024-02-16T10:32:17.488Z,27.11
2024-02-16T10:33:17.574Z,26.97
2024-02-16T10:34:17.650Z,27.06
2024-02-16T10:35:17.603Z,27.05
2024-02-16T10:36:17.638Z,27.01
2024-02-16T10:37:17.575Z,26.90
2024-02-16T10:38:17.626Z,26.86
2024-02-16T10:39:17.706Z,26.86
2024-02-16T10:40:17.613Z,26.83
2024-02-16T10:41:17.611Z,26.85
2024-02-16T10:42:17.662Z,26.77
2024-02-16T10:43:17.603Z,26.80
2024-02-16T10:44:17.637Z,26.76
2024-02-16T10:45:17.668Z,26.77
2024-02-16T10:46:17.648Z,26.74
2024-02-16T10:47:17.651Z,26.69
2024-02-16T10:48:17.871Z,26.73
2024-02-16T10:49:17.901Z,26.76
2024-02-16T10:50:18.015Z,26.81
2024-02-16T10:51:17.849Z,26.77
2024-02-16T10:52:17.805Z,26.71
2024-02-16T10:53:17.797Z,26.63
2024-02-16T10:54:18.019Z,26.57
2024-02-16T10:55:17.972Z,26.46
2024-02-16T10:56:17.969Z,26.47
2024-02-16T10:57:18.055Z,26.48
2024-02-16T10:58:18.133Z,26.48
2024-02-16T10:59:18.250Z,26.44
2024-02-16T11:00:18.392Z,26.44
2024-02-16T11:01:18.575Z,26.46
2024-02-16T11:02:18.300Z,26.47
2024-02-16T11:03:18.477Z,26.57
2024-02-16T11:04:18.682Z,26.52
2024-02-16T11:05:18.434Z,26.45
2024-02-16T11:06:18.778Z,26.36
2024-02-16T11:07:18.715Z,26.30
2024-02-16T11:08:18.606Z,26.27
2024-02-16T11:09:18.689Z,26.19
2024-02-16T11:10:18.781Z,26.16
2024-02-16T11:11:18.851Z,26.14
2024-02-16T11:12:19.074Z,26.09
2024-02-16T11:13:18.944Z,25.93
2024-02-16T11:14:19.002Z,26.11
2024-02-16T11:15:19.113Z,26.13
2024-02-16T11:16:19.130Z,26.13
2024-02-16T11:17:19.195Z,26.17
2024-02-16T11:18:19.307Z,26.24
2024-02-16T11:19:19.409Z,26.21
2024-02-16T11:20:19.355Z,26.24
2024-02-16T11:21:19.496Z,26.19
2024-02-16T11:22:19.750Z,26.15
2024-02-16T11:23:19.495Z,26.16
2024-02-16T11:24:19.617Z,26.06
2024-02-16T11:25:19.673Z,26.12
2024-02-16T11:26:19.710Z,26.13
2024-02-16T11:27:19.754Z,26.09
2024-02-16T11:28:19.722Z,26.11
2024-02-16T11:29:19.821Z,26.06
2024-02-16T11:30:19.959Z,25.99
2024-02-16T11:31:19.946Z,26.00
2024-02-16T11:32:20.057Z,25.93
2024-02-16T11:33:20.080Z,25.91
2024-02-16T11:34:20.982Z,25.90
2024-02-16T11:35:20.112Z,25.90
2024-02-16T11:36:20.197Z,25.84
2024-02-16T11:37:20.197Z,25.83
2024-02-16T11:38:20.193Z,25.87
2024-02-16T11:39:20.285Z,26.39
2024-02-16T11:40:20.349Z,26.36
2024-02-16T11:41:20.383Z,26.32
2024-02-16T11:42:20.694Z,26.53
2024-02-16T11:43:20.535Z,26.55
2024-02-16T11:44:20.589Z,26.11
2024-02-16T11:45:20.681Z,26.09
2024-02-16T11:46:20.727Z,26.01
2024-02-16T11:47:20.809Z,25.95
2024-02-16T11:48:21.046Z,25.88
2024-02-16T11:49:21.017Z,25.88
2024-02-16T11:50:20.989Z,26.16
2024-02-16T11:51:21.124Z,26.04
2024-02-16T11:52:21.088Z,25.92
2024-02-16T11:53:21.127Z,26.40
2024-02-16T11:54:21.208Z,26.34
2024-02-16T11:55:21.248Z,25.97
2024-02-16T11:56:21.298Z,25.90
2024-02-16T11:57:21.385Z,25.86
2024-02-16T11:58:21.426Z,25.82
2024-02-16T11:59:21.515Z,26.09
2024-02-16T12:00:21.618Z,25.82
2024-02-16T12:01:21.624Z,25.76
2024-02-16T12:02:21.708Z,25.71
2024-02-16T12:03:21.770Z,25.65
2024-02-16T12:04:21.717Z,25.59
2024-02-16T12:05:21.816Z,25.48
2024-02-16T12:06:22.122Z,25.50
2024-02-16T12:07:21.919Z,25.51
2024-02-16T12:08:21.969Z,25.51
2024-02-16T12:09:22.003Z,25.47
2024-02-16T12:10:21.979Z,25.41
2024-02-16T12:11:22.080Z,25.41
2024-02-16T12:12:22.072Z,25.16
2024-02-16T12:13:22.153Z,24.43
2024-02-16T12:14:22.201Z,24.75
2024-02-16T12:15:22.266Z,25.38
2024-02-16T12:16:22.343Z,25.42
2024-02-16T12:17:22.324Z,25.35
2024-02-16T12:18:22.541Z,25.30
2024-02-16T12:19:22.659Z,25.09
2024-02-16T12:20:22.536Z,24.45
2024-02-16T12:21:22.658Z,25.15
2024-02-16T12:22:22.575Z,25.26
2024-02-16T12:23:22.620Z,25.20
2024-02-16T12:24:22.854Z,25.13
2024-02-16T12:25:22.692Z,25.11
2024-02-16T12:26:22.819Z,25.03
2024-02-16T12:27:22.869Z,24.97
2024-02-16T12:28:22.854Z,24.91
2024-02-16T12:29:22.823Z,24.88
2024-02-16T12:30:22.846Z,24.84
2024-02-16T12:31:22.913Z,24.81
2024-02-16T12:32:22.968Z,24.77
2024-02-16T12:33:23.148Z,24.76
2024-02-16T12:34:23.038Z,24.74
2024-02-16T12:35:23.075Z,24.72
2024-02-16T12:36:23.002Z,24.71
2024-02-16T12:37:22.938Z,24.72
2024-02-16T12:38:23.030Z,24.69
2024-02-16T12:39:23.103Z,24.69
2024-02-16T12:40:23.024Z,24.66
2024-02-16T12:41:23.072Z,24.66
2024-02-16T12:42:23.088Z,24.67
2024-02-16T12:43:23.071Z,24.67
2024-02-16T12:44:23.084Z,24.68
2024-02-16T12:45:23.114Z,24.67
2024-02-16T12:46:23.123Z,24.63
2024-02-16T12:47:23.086Z,24.60
2024-02-16T12:48:23.313Z,24.60
2024-02-16T12:49:23.298Z,24.62
2024-02-16T12:50:23.220Z,24.62
2024-02-16T12:51:23.304Z,24.62
2024-02-16T12:52:23.155Z,24.60
2024-02-16T12:53:23.234Z,24.58
2024-02-16T12:54:23.414Z,24.58